SWR80 LSZH-CYYZ
Flight info
| Callsign | SWR80 |
|---|---|
| Flight time | N/A |
| Altitude | 34000 |
| Route | VEBIT T10 TORPA DCT REKLA DCT RLP DCT ROTSI DCT KOTUN DCT AMAXA DCT VESAN DCT RATUK DCT SOVAT/N0461F360 L613 SANDY DCT OKSAW DCT TEWXI DCT VATRY/N0465F380 DCT TORLU DCT DOGAL/M082F390 NATD NEEKO/N0466F380 N622E TAFFY/N0461F400 DCT VILRO DCT SAVEX Q806 TUKIR IMEBA9 |
| Aircraft | A339/H-SADE1E2E3GHIJ3J5M1P2RWXY/LB2D1 |
Departure
| Time | N/A |
|---|---|
| Airport | Zürich Airport (LSZH) |
Arrival
| Time | 2026-05-05 16:39 |
|---|---|
| Airport | Toronto Pearson International Airport (CYYZ) |
| Time | Latitude | Longitude | Altitude | Speed | Heading |
|---|---|---|---|---|---|
| 2026-05-05 13:27 | 53.56172 | -51.75048 | 38540 ft | 472 kts | 244° |
| 2026-05-05 13:28 | 53.53547 | -51.85117 | 38536 ft | 472 kts | 244° |
| 2026-05-05 13:28 | 53.50907 | -51.95196 | 38537 ft | 472 kts | 244° |
| 2026-05-05 13:29 | 53.48276 | -52.05197 | 38533 ft | 472 kts | 244° |
| 2026-05-05 13:29 | 53.45618 | -52.15251 | 38523 ft | 471 kts | 244° |
| 2026-05-05 13:30 | 53.42973 | -52.25212 | 38518 ft | 471 kts | 244° |
| 2026-05-05 13:30 | 53.40313 | -52.35191 | 38514 ft | 471 kts | 244° |
| 2026-05-05 13:31 | 53.37634 | -52.45197 | 38514 ft | 471 kts | 244° |
| 2026-05-05 13:31 | 53.36792 | -52.48309 | 40224 ft | 472 kts | 245° |
| 2026-05-05 13:31 | 53.36379 | -52.49848 | 38363 ft | 471 kts | 244° |
| 2026-05-05 13:32 | 53.33708 | -52.59800 | 38504 ft | 470 kts | 244° |
| 2026-05-05 13:32 | 53.31022 | -52.69708 | 38542 ft | 470 kts | 243° |
| 2026-05-05 13:33 | 53.28337 | -52.79570 | 38530 ft | 470 kts | 244° |
| 2026-05-05 13:33 | 53.25635 | -52.89460 | 38512 ft | 471 kts | 244° |
| 2026-05-05 13:34 | 53.22912 | -52.99395 | 38498 ft | 471 kts | 244° |
| 2026-05-05 13:34 | 53.20195 | -53.09270 | 38488 ft | 470 kts | 244° |
| 2026-05-05 13:35 | 53.17467 | -53.19136 | 38486 ft | 470 kts | 244° |
| 2026-05-05 13:35 | 53.14738 | -53.28960 | 38483 ft | 470 kts | 244° |
| 2026-05-05 13:36 | 53.12003 | -53.38767 | 38479 ft | 470 kts | 244° |
| 2026-05-05 13:36 | 53.09253 | -53.48589 | 38478 ft | 470 kts | 244° |
| 2026-05-05 13:37 | 53.06494 | -53.58397 | 38475 ft | 470 kts | 244° |
| 2026-05-05 13:37 | 53.03720 | -53.68222 | 38474 ft | 470 kts | 243° |
| 2026-05-05 13:38 | 53.00936 | -53.78032 | 38465 ft | 469 kts | 243° |
| 2026-05-05 13:38 | 52.98166 | -53.87756 | 38504 ft | 470 kts | 243° |
| 2026-05-05 13:39 | 52.96761 | -53.92677 | 38651 ft | 469 kts | 243° |
| 2026-05-05 13:39 | 52.95373 | -53.97528 | 38824 ft | 469 kts | 243° |
| 2026-05-05 13:39 | 52.93983 | -54.02375 | 38971 ft | 468 kts | 243° |
| 2026-05-05 13:39 | 52.92598 | -54.07196 | 39107 ft | 468 kts | 243° |
| 2026-05-05 13:40 | 52.91191 | -54.12080 | 39232 ft | 468 kts | 243° |
| 2026-05-05 13:40 | 52.89787 | -54.16943 | 39352 ft | 469 kts | 243° |
| 2026-05-05 13:40 | 52.86981 | -54.26631 | 39445 ft | 469 kts | 243° |
| 2026-05-05 13:41 | 52.84182 | -54.36258 | 39454 ft | 469 kts | 243° |
| 2026-05-05 13:41 | 52.81352 | -54.45953 | 39458 ft | 469 kts | 243° |
| 2026-05-05 13:42 | 52.78522 | -54.55606 | 39455 ft | 468 kts | 243° |
| 2026-05-05 13:42 | 52.75702 | -54.65185 | 39457 ft | 468 kts | 243° |
| 2026-05-05 13:43 | 52.72847 | -54.74853 | 39454 ft | 468 kts | 243° |
| 2026-05-05 13:43 | 52.70003 | -54.84437 | 39452 ft | 468 kts | 243° |
| 2026-05-05 13:44 | 52.67140 | -54.94048 | 39451 ft | 467 kts | 243° |
| 2026-05-05 13:44 | 52.64299 | -55.03543 | 39448 ft | 467 kts | 243° |
| 2026-05-05 13:45 | 52.61431 | -55.13094 | 39457 ft | 467 kts | 243° |
| 2026-05-05 13:45 | 52.58554 | -55.22641 | 39460 ft | 467 kts | 243° |
| 2026-05-05 13:46 | 52.55666 | -55.32187 | 39459 ft | 467 kts | 243° |
| 2026-05-05 13:46 | 52.52799 | -55.41622 | 39459 ft | 466 kts | 243° |
| 2026-05-05 13:47 | 52.49902 | -55.51116 | 39459 ft | 466 kts | 243° |
| 2026-05-05 13:47 | 52.46998 | -55.60602 | 39461 ft | 466 kts | 243° |
| 2026-05-05 13:48 | 52.44091 | -55.70061 | 39459 ft | 465 kts | 242° |
| 2026-05-05 13:48 | 52.41181 | -55.79485 | 39461 ft | 465 kts | 242° |
| 2026-05-05 13:49 | 52.38113 | -55.88693 | 39449 ft | 465 kts | 239° |
| 2026-05-05 13:49 | 52.34914 | -55.97832 | 39444 ft | 465 kts | 239° |
| 2026-05-05 13:50 | 52.31706 | -56.06971 | 39448 ft | 464 kts | 239° |
| 2026-05-05 13:50 | 52.28500 | -56.16070 | 39451 ft | 463 kts | 240° |
| 2026-05-05 13:51 | 52.25295 | -56.25135 | 39450 ft | 463 kts | 240° |
| 2026-05-05 13:51 | 52.22079 | -56.34196 | 39457 ft | 464 kts | 240° |
| 2026-05-05 13:52 | 52.18843 | -56.43283 | 39454 ft | 464 kts | 240° |
| 2026-05-05 13:52 | 52.15604 | -56.52346 | 39455 ft | 464 kts | 240° |
| 2026-05-05 13:53 | 52.12369 | -56.61360 | 39462 ft | 463 kts | 240° |
| 2026-05-05 13:53 | 52.09106 | -56.70423 | 39452 ft | 463 kts | 239° |
| 2026-05-05 13:54 | 52.05866 | -56.79388 | 39455 ft | 463 kts | 239° |
| 2026-05-05 13:54 | 52.02607 | -56.88378 | 39454 ft | 463 kts | 239° |
| 2026-05-05 13:55 | 51.99334 | -56.97369 | 39462 ft | 464 kts | 239° |
| 2026-05-05 13:55 | 51.96068 | -57.06311 | 39473 ft | 464 kts | 239° |
| 2026-05-05 13:56 | 51.92782 | -57.15279 | 39470 ft | 463 kts | 239° |
| 2026-05-05 13:56 | 51.89483 | -57.24251 | 39480 ft | 463 kts | 239° |
| 2026-05-05 13:57 | 51.86202 | -57.33139 | 39481 ft | 462 kts | 239° |
| 2026-05-05 13:57 | 51.82900 | -57.42054 | 39480 ft | 462 kts | 239° |
| 2026-05-05 13:58 | 51.79594 | -57.50948 | 39488 ft | 462 kts | 239° |
| 2026-05-05 13:58 | 51.76304 | -57.59768 | 39487 ft | 462 kts | 239° |
| 2026-05-05 13:59 | 51.71318 | -57.73077 | 39483 ft | 463 kts | 239° |
| 2026-05-05 14:00 | 51.66873 | -57.84882 | 39501 ft | 462 kts | 239° |
| 2026-05-05 14:00 | 51.62988 | -57.95159 | 39512 ft | 462 kts | 239° |
| 2026-05-05 14:01 | 51.59651 | -58.03955 | 39529 ft | 462 kts | 239° |
| 2026-05-05 14:01 | 51.56309 | -58.12730 | 39532 ft | 462 kts | 239° |
| 2026-05-05 14:02 | 51.52969 | -58.21471 | 39528 ft | 462 kts | 239° |
| 2026-05-05 14:02 | 51.49621 | -58.30202 | 39536 ft | 462 kts | 239° |
| 2026-05-05 14:03 | 51.46252 | -58.38956 | 39542 ft | 461 kts | 239° |
| 2026-05-05 14:03 | 51.42892 | -58.47660 | 39550 ft | 461 kts | 239° |
| 2026-05-05 14:04 | 51.39534 | -58.56331 | 39547 ft | 460 kts | 239° |
| 2026-05-05 14:04 | 51.36165 | -58.65000 | 39556 ft | 460 kts | 239° |
| 2026-05-05 14:05 | 51.32790 | -58.73652 | 39557 ft | 460 kts | 238° |
| 2026-05-05 14:05 | 51.29397 | -58.82326 | 39551 ft | 460 kts | 238° |
| 2026-05-05 14:06 | 51.26022 | -58.90923 | 39553 ft | 460 kts | 238° |
| 2026-05-05 14:06 | 51.22622 | -58.99554 | 39553 ft | 460 kts | 238° |
| 2026-05-05 14:07 | 51.19231 | -59.08134 | 39557 ft | 460 kts | 238° |
| 2026-05-05 14:07 | 51.15824 | -59.16727 | 39556 ft | 460 kts | 238° |
| 2026-05-05 14:08 | 51.12399 | -59.25332 | 39560 ft | 460 kts | 238° |
| 2026-05-05 14:08 | 51.09008 | -59.33826 | 39559 ft | 459 kts | 238° |
| 2026-05-05 14:09 | 51.05576 | -59.42395 | 39564 ft | 459 kts | 238° |
| 2026-05-05 14:09 | 51.02168 | -59.50879 | 39567 ft | 459 kts | 239° |
| 2026-05-05 14:10 | 50.98752 | -59.59354 | 39573 ft | 459 kts | 238° |
| 2026-05-05 14:10 | 50.95314 | -59.67855 | 39593 ft | 459 kts | 238° |
| 2026-05-05 14:11 | 50.91867 | -59.76350 | 39596 ft | 459 kts | 238° |
| 2026-05-05 14:11 | 50.88423 | -59.84809 | 39593 ft | 458 kts | 238° |
| 2026-05-05 14:12 | 50.84978 | -59.93240 | 39594 ft | 458 kts | 238° |
| 2026-05-05 14:12 | 50.81519 | -60.01681 | 39609 ft | 458 kts | 238° |
| 2026-05-05 14:13 | 50.78066 | -60.10083 | 39614 ft | 457 kts | 238° |
| 2026-05-05 14:13 | 50.74601 | -60.18485 | 39620 ft | 457 kts | 238° |
| 2026-05-05 14:14 | 50.71153 | -60.26820 | 39630 ft | 456 kts | 238° |
| 2026-05-05 14:14 | 50.67693 | -60.35158 | 39623 ft | 456 kts | 238° |
| 2026-05-05 14:15 | 50.64207 | -60.43530 | 39628 ft | 456 kts | 238° |
| 2026-05-05 14:15 | 50.60751 | -60.51803 | 39630 ft | 455 kts | 238° |
| 2026-05-05 14:16 | 50.57253 | -60.60148 | 39639 ft | 455 kts | 238° |
| 2026-05-05 14:16 | 50.53800 | -60.68357 | 39646 ft | 455 kts | 237° |
| 2026-05-05 14:17 | 50.50307 | -60.76644 | 39656 ft | 454 kts | 237° |
| 2026-05-05 14:17 | 50.46846 | -60.84828 | 39656 ft | 454 kts | 237° |
| 2026-05-05 14:18 | 50.43359 | -60.93047 | 39655 ft | 454 kts | 237° |
| 2026-05-05 14:18 | 50.39846 | -61.01296 | 39673 ft | 454 kts | 237° |
| 2026-05-05 14:19 | 50.36367 | -61.09445 | 39679 ft | 454 kts | 237° |
| 2026-05-05 14:19 | 50.32859 | -61.17633 | 39697 ft | 454 kts | 237° |
| 2026-05-05 14:20 | 50.29351 | -61.25795 | 39698 ft | 453 kts | 238° |
| 2026-05-05 14:20 | 50.25829 | -61.33967 | 39699 ft | 453 kts | 238° |
| 2026-05-05 14:21 | 50.22310 | -61.42108 | 39700 ft | 453 kts | 237° |
| 2026-05-05 14:21 | 50.18797 | -61.50206 | 39701 ft | 452 kts | 238° |
| 2026-05-05 14:22 | 50.15287 | -61.58277 | 39699 ft | 453 kts | 238° |
| 2026-05-05 14:22 | 50.11759 | -61.66361 | 39708 ft | 452 kts | 237° |
| 2026-05-05 14:23 | 50.08229 | -61.74424 | 39719 ft | 453 kts | 237° |
| 2026-05-05 14:23 | 50.04689 | -61.82485 | 39709 ft | 452 kts | 237° |
| 2026-05-05 14:24 | 50.01137 | -61.90554 | 39712 ft | 452 kts | 237° |
| 2026-05-05 14:24 | 49.97604 | -61.98555 | 39713 ft | 452 kts | 237° |
| 2026-05-05 14:25 | 49.94050 | -62.06573 | 39696 ft | 451 kts | 237° |
| 2026-05-05 14:25 | 49.90507 | -62.14548 | 39704 ft | 451 kts | 237° |
| 2026-05-05 14:26 | 49.86964 | -62.22496 | 39707 ft | 450 kts | 237° |
| 2026-05-05 14:26 | 49.83427 | -62.30408 | 39722 ft | 450 kts | 237° |
| 2026-05-05 14:27 | 49.79872 | -62.38332 | 39723 ft | 450 kts | 237° |
| 2026-05-05 14:27 | 49.76300 | -62.46277 | 39733 ft | 451 kts | 237° |
| 2026-05-05 14:28 | 49.72734 | -62.54182 | 39730 ft | 449 kts | 237° |
| 2026-05-05 14:28 | 49.69176 | -62.62047 | 39718 ft | 449 kts | 237° |
| 2026-05-05 14:29 | 49.65593 | -62.69939 | 39727 ft | 448 kts | 237° |
| 2026-05-05 14:29 | 49.62027 | -62.77777 | 39720 ft | 449 kts | 237° |
| 2026-05-05 14:30 | 49.58438 | -62.85633 | 39724 ft | 448 kts | 237° |
| 2026-05-05 14:30 | 49.54859 | -62.93452 | 39733 ft | 447 kts | 237° |
| 2026-05-05 14:31 | 49.51292 | -63.01223 | 39716 ft | 446 kts | 237° |
| 2026-05-05 14:31 | 49.47722 | -63.08979 | 39725 ft | 446 kts | 237° |
| 2026-05-05 14:32 | 49.44158 | -63.16693 | 39722 ft | 444 kts | 237° |
| 2026-05-05 14:32 | 49.40580 | -63.24419 | 39715 ft | 444 kts | 237° |
| 2026-05-05 14:33 | 49.37018 | -63.32085 | 39730 ft | 443 kts | 237° |
| 2026-05-05 14:33 | 49.33457 | -63.39725 | 39705 ft | 442 kts | 237° |
| 2026-05-05 14:34 | 49.29881 | -63.47387 | 39727 ft | 442 kts | 237° |
| 2026-05-05 14:34 | 49.26321 | -63.54980 | 39720 ft | 442 kts | 237° |
| 2026-05-05 14:35 | 49.22748 | -63.62585 | 39738 ft | 441 kts | 237° |
| 2026-05-05 14:35 | 49.19183 | -63.70145 | 39725 ft | 440 kts | 237° |
| 2026-05-05 14:36 | 49.15626 | -63.77679 | 39717 ft | 440 kts | 236° |
| 2026-05-05 14:36 | 49.12040 | -63.85247 | 39729 ft | 439 kts | 237° |
| 2026-05-05 14:37 | 49.08495 | -63.92711 | 39728 ft | 438 kts | 236° |
| 2026-05-05 14:37 | 49.04924 | -64.00200 | 39719 ft | 437 kts | 236° |
| 2026-05-05 14:38 | 49.01368 | -64.07640 | 39691 ft | 437 kts | 236° |
| 2026-05-05 14:38 | 48.97789 | -64.15108 | 39692 ft | 436 kts | 237° |
| 2026-05-05 14:39 | 48.94222 | -64.22535 | 39697 ft | 437 kts | 237° |
| 2026-05-05 14:39 | 48.90654 | -64.29944 | 39703 ft | 437 kts | 236° |
| 2026-05-05 14:40 | 48.87113 | -64.37272 | 39699 ft | 436 kts | 236° |
| 2026-05-05 14:40 | 48.83540 | -64.44647 | 39720 ft | 436 kts | 236° |
| 2026-05-05 14:41 | 48.79944 | -64.52044 | 39713 ft | 436 kts | 236° |
| 2026-05-05 14:41 | 48.76358 | -64.59407 | 39727 ft | 436 kts | 237° |
| 2026-05-05 14:42 | 48.72813 | -64.66663 | 39720 ft | 435 kts | 236° |
| 2026-05-05 14:42 | 48.69168 | -64.74107 | 39712 ft | 436 kts | 236° |
| 2026-05-05 14:43 | 48.65573 | -64.81426 | 39720 ft | 435 kts | 236° |
| 2026-05-05 14:43 | 48.61972 | -64.88738 | 39704 ft | 435 kts | 236° |
| 2026-05-05 14:44 | 48.58361 | -64.96051 | 39706 ft | 434 kts | 236° |
| 2026-05-05 14:44 | 48.54780 | -65.03281 | 39724 ft | 435 kts | 236° |
| 2026-05-05 14:45 | 48.51163 | -65.10564 | 39707 ft | 435 kts | 236° |
| 2026-05-05 14:45 | 48.47531 | -65.17861 | 39717 ft | 434 kts | 236° |
| 2026-05-05 14:46 | 48.43928 | -65.25080 | 39701 ft | 434 kts | 236° |
| 2026-05-05 14:46 | 48.40306 | -65.32319 | 39701 ft | 433 kts | 236° |
| 2026-05-05 14:47 | 48.36681 | -65.39539 | 39706 ft | 432 kts | 236° |
| 2026-05-05 14:47 | 48.33085 | -65.46684 | 39706 ft | 432 kts | 236° |
| 2026-05-05 14:48 | 48.29481 | -65.53827 | 39702 ft | 432 kts | 236° |
| 2026-05-05 14:48 | 48.25861 | -65.60987 | 39715 ft | 432 kts | 236° |
| 2026-05-05 14:49 | 48.22305 | -65.67994 | 39734 ft | 431 kts | 235° |
| 2026-05-05 14:49 | 48.18672 | -65.75140 | 39719 ft | 430 kts | 235° |
| 2026-05-05 14:50 | 48.15051 | -65.82242 | 39733 ft | 430 kts | 235° |
| 2026-05-05 14:50 | 48.11448 | -65.89290 | 39749 ft | 429 kts | 235° |
| 2026-05-05 14:51 | 48.07845 | -65.96320 | 39721 ft | 428 kts | 235° |
| 2026-05-05 14:51 | 48.04211 | -66.03395 | 39717 ft | 429 kts | 235° |
| 2026-05-05 14:52 | 48.00585 | -66.10431 | 39735 ft | 428 kts | 235° |
| 2026-05-05 14:52 | 47.96970 | -66.17431 | 39706 ft | 429 kts | 235° |
| 2026-05-05 14:53 | 47.93346 | -66.24425 | 39741 ft | 428 kts | 235° |
| 2026-05-05 14:53 | 47.89701 | -66.31448 | 39716 ft | 428 kts | 235° |
| 2026-05-05 14:54 | 47.86160 | -66.38252 | 39717 ft | 429 kts | 235° |
| 2026-05-05 14:54 | 47.82503 | -66.45260 | 39726 ft | 429 kts | 235° |
| 2026-05-05 14:55 | 47.78840 | -66.52262 | 39725 ft | 429 kts | 235° |
| 2026-05-05 14:55 | 47.75194 | -66.59214 | 39708 ft | 429 kts | 235° |
| 2026-05-05 14:56 | 47.71532 | -66.66174 | 39711 ft | 428 kts | 234° |
| 2026-05-05 14:56 | 47.67875 | -66.73111 | 39690 ft | 428 kts | 234° |
| 2026-05-05 14:57 | 47.64212 | -66.80045 | 39691 ft | 429 kts | 234° |
| 2026-05-05 14:57 | 47.60555 | -66.86945 | 39710 ft | 429 kts | 234° |
| 2026-05-05 14:58 | 47.56864 | -66.93896 | 39698 ft | 429 kts | 234° |
| 2026-05-05 14:58 | 47.53190 | -67.00800 | 39718 ft | 430 kts | 234° |
| 2026-05-05 14:59 | 47.49490 | -67.07728 | 39713 ft | 429 kts | 234° |
| 2026-05-05 14:59 | 47.45814 | -67.14596 | 39719 ft | 428 kts | 234° |
| 2026-05-05 15:00 | 47.42738 | -67.20330 | 39711 ft | 428 kts | 234° |
| 2026-05-05 15:00 | 47.38705 | -67.28587 | 39742 ft | 425 kts | 240° |
| 2026-05-05 15:01 | 47.35792 | -67.36082 | 39725 ft | 422 kts | 245° |
| 2026-05-05 15:01 | 47.33375 | -67.43880 | 39730 ft | 419 kts | 249° |
| 2026-05-05 15:02 | 47.31074 | -67.51709 | 39721 ft | 419 kts | 249° |
| 2026-05-05 15:02 | 47.28763 | -67.59551 | 39726 ft | 417 kts | 249° |
| 2026-05-05 15:03 | 47.26461 | -67.67338 | 39728 ft | 416 kts | 248° |
| 2026-05-05 15:03 | 47.24160 | -67.75104 | 39713 ft | 415 kts | 248° |
| 2026-05-05 15:04 | 47.21856 | -67.82861 | 39705 ft | 413 kts | 248° |
| 2026-05-05 15:04 | 47.19554 | -67.90588 | 39723 ft | 413 kts | 248° |
| 2026-05-05 15:05 | 47.16101 | -68.02125 | 39704 ft | 412 kts | 248° |
| 2026-05-05 15:06 | 47.13816 | -68.09736 | 39701 ft | 411 kts | 248° |
| 2026-05-05 15:06 | 47.11503 | -68.17416 | 39698 ft | 410 kts | 248° |
| 2026-05-05 15:07 | 47.09204 | -68.25018 | 39709 ft | 410 kts | 248° |
| 2026-05-05 15:07 | 47.06893 | -68.32641 | 39712 ft | 410 kts | 248° |
| 2026-05-05 15:08 | 47.04585 | -68.40231 | 39706 ft | 410 kts | 248° |
| 2026-05-05 15:08 | 47.02278 | -68.47797 | 39684 ft | 409 kts | 248° |
| 2026-05-05 15:09 | 46.99958 | -68.55385 | 39677 ft | 408 kts | 248° |
| 2026-05-05 15:09 | 46.97635 | -68.62953 | 39689 ft | 407 kts | 248° |
| 2026-05-05 15:10 | 46.95316 | -68.70489 | 39679 ft | 407 kts | 247° |
| 2026-05-05 15:10 | 46.92998 | -68.78003 | 39697 ft | 407 kts | 247° |
| 2026-05-05 15:11 | 46.90678 | -68.85497 | 39696 ft | 406 kts | 247° |
| 2026-05-05 15:11 | 46.88343 | -68.93011 | 39698 ft | 406 kts | 246° |
| 2026-05-05 15:12 | 46.86007 | -69.00511 | 39706 ft | 406 kts | 247° |
| 2026-05-05 15:12 | 46.83675 | -69.07980 | 39694 ft | 406 kts | 247° |
| 2026-05-05 15:13 | 46.81345 | -69.15421 | 39696 ft | 406 kts | 247° |
| 2026-05-05 15:13 | 46.78999 | -69.22884 | 39677 ft | 405 kts | 247° |
| 2026-05-05 15:14 | 46.76653 | -69.30330 | 39690 ft | 404 kts | 247° |
| 2026-05-05 15:14 | 46.74327 | -69.37695 | 39685 ft | 403 kts | 246° |
| 2026-05-05 15:15 | 46.71975 | -69.45113 | 39683 ft | 403 kts | 246° |
| 2026-05-05 15:15 | 46.69635 | -69.52471 | 39683 ft | 402 kts | 246° |
| 2026-05-05 15:16 | 46.67293 | -69.59814 | 39686 ft | 402 kts | 247° |
| 2026-05-05 15:16 | 46.64937 | -69.67184 | 39693 ft | 402 kts | 246° |
| 2026-05-05 15:17 | 46.62598 | -69.74487 | 39680 ft | 401 kts | 245° |
| 2026-05-05 15:17 | 46.60243 | -69.81803 | 39678 ft | 401 kts | 246° |
| 2026-05-05 15:18 | 46.57885 | -69.89116 | 39681 ft | 401 kts | 246° |
| 2026-05-05 15:18 | 46.55529 | -69.96407 | 39683 ft | 400 kts | 245° |
| 2026-05-05 15:19 | 46.53154 | -70.03726 | 39676 ft | 401 kts | 246° |
| 2026-05-05 15:19 | 46.50782 | -70.11025 | 39676 ft | 400 kts | 245° |
| 2026-05-05 15:20 | 46.48411 | -70.18290 | 39670 ft | 400 kts | 245° |
| 2026-05-05 15:20 | 46.46034 | -70.25562 | 39688 ft | 400 kts | 245° |
| 2026-05-05 15:21 | 46.43672 | -70.32760 | 39666 ft | 398 kts | 245° |
| 2026-05-05 15:21 | 46.41298 | -70.39980 | 39681 ft | 398 kts | 245° |
| 2026-05-05 15:22 | 46.38917 | -70.47198 | 39670 ft | 397 kts | 245° |
| 2026-05-05 15:22 | 46.36545 | -70.54371 | 39690 ft | 398 kts | 245° |
| 2026-05-05 15:23 | 46.34155 | -70.61574 | 39674 ft | 398 kts | 245° |
| 2026-05-05 15:23 | 46.31759 | -70.68782 | 39683 ft | 398 kts | 244° |
| 2026-05-05 15:24 | 46.29352 | -70.75999 | 39682 ft | 398 kts | 245° |
| 2026-05-05 15:24 | 46.26957 | -70.83159 | 39671 ft | 398 kts | 245° |
| 2026-05-05 15:25 | 46.24556 | -70.90323 | 39678 ft | 398 kts | 244° |
| 2026-05-05 15:25 | 46.22152 | -70.97477 | 39675 ft | 398 kts | 244° |
| 2026-05-05 15:26 | 46.19738 | -71.04633 | 39673 ft | 398 kts | 244° |
| 2026-05-05 15:26 | 46.17319 | -71.11792 | 39662 ft | 397 kts | 244° |
| 2026-05-05 15:27 | 46.14910 | -71.18897 | 39669 ft | 397 kts | 244° |
| 2026-05-05 15:27 | 46.12492 | -71.26010 | 39670 ft | 396 kts | 244° |
| 2026-05-05 15:28 | 46.10060 | -71.33142 | 39662 ft | 396 kts | 244° |
| 2026-05-05 15:28 | 46.07643 | -71.40216 | 39668 ft | 395 kts | 244° |
| 2026-05-05 15:29 | 46.05220 | -71.47289 | 39659 ft | 396 kts | 244° |
| 2026-05-05 15:29 | 46.02783 | -71.54384 | 39677 ft | 395 kts | 244° |
| 2026-05-05 15:30 | 46.00357 | -71.61422 | 39658 ft | 395 kts | 244° |
| 2026-05-05 15:30 | 45.97928 | -71.68458 | 39674 ft | 395 kts | 243° |
| 2026-05-05 15:31 | 45.95484 | -71.75514 | 39677 ft | 395 kts | 243° |
| 2026-05-05 15:31 | 45.93047 | -71.82534 | 39676 ft | 395 kts | 243° |
| 2026-05-05 15:32 | 45.90597 | -71.89571 | 39672 ft | 395 kts | 243° |
| 2026-05-05 15:32 | 45.88171 | -71.96518 | 39651 ft | 394 kts | 243° |
| 2026-05-05 15:33 | 45.85716 | -72.03530 | 39646 ft | 394 kts | 243° |
| 2026-05-05 15:33 | 45.83260 | -72.10532 | 39641 ft | 394 kts | 243° |
| 2026-05-05 15:34 | 45.80803 | -72.17516 | 39642 ft | 395 kts | 243° |
| 2026-05-05 15:34 | 45.78342 | -72.24495 | 39651 ft | 395 kts | 243° |
| 2026-05-05 15:35 | 45.75896 | -72.31412 | 39645 ft | 395 kts | 244° |
| 2026-05-05 15:35 | 45.73435 | -72.38354 | 39636 ft | 395 kts | 243° |
| 2026-05-05 15:36 | 45.70949 | -72.45349 | 39650 ft | 396 kts | 243° |
| 2026-05-05 15:36 | 45.68448 | -72.52361 | 39651 ft | 396 kts | 243° |
| 2026-05-05 15:37 | 45.65973 | -72.59313 | 39651 ft | 396 kts | 244° |
| 2026-05-05 15:37 | 45.63824 | -72.66512 | 39642 ft | 396 kts | 249° |
| 2026-05-05 15:38 | 45.62207 | -72.74020 | 39637 ft | 398 kts | 254° |
| 2026-05-05 15:38 | 45.61158 | -72.81762 | 39635 ft | 399 kts | 259° |
| 2026-05-05 15:39 | 45.60630 | -72.89648 | 39651 ft | 401 kts | 262° |
| 2026-05-05 15:39 | 45.60200 | -72.97555 | 39635 ft | 400 kts | 262° |
| 2026-05-05 15:40 | 45.59773 | -73.05452 | 39634 ft | 400 kts | 262° |
| 2026-05-05 15:40 | 45.59347 | -73.13288 | 39628 ft | 400 kts | 262° |
| 2026-05-05 15:41 | 45.58911 | -73.21200 | 39627 ft | 400 kts | 262° |
| 2026-05-05 15:41 | 45.58474 | -73.29048 | 39630 ft | 400 kts | 262° |
| 2026-05-05 15:42 | 45.58029 | -73.36968 | 39618 ft | 400 kts | 262° |
| 2026-05-05 15:42 | 45.57582 | -73.44808 | 39604 ft | 399 kts | 262° |
| 2026-05-05 15:43 | 45.57126 | -73.52724 | 39624 ft | 401 kts | 262° |
| 2026-05-05 15:43 | 45.56667 | -73.60606 | 39630 ft | 401 kts | 262° |
| 2026-05-05 15:44 | 45.56198 | -73.68524 | 39635 ft | 401 kts | 262° |
| 2026-05-05 15:44 | 45.55722 | -73.76459 | 39633 ft | 401 kts | 262° |
| 2026-05-05 15:45 | 45.55247 | -73.84343 | 39585 ft | 401 kts | 262° |
| 2026-05-05 15:45 | 45.54765 | -73.92220 | 39633 ft | 402 kts | 262° |
| 2026-05-05 15:46 | 45.54273 | -74.00166 | 39624 ft | 403 kts | 262° |
| 2026-05-05 15:46 | 45.53779 | -74.08078 | 39639 ft | 402 kts | 262° |
| 2026-05-05 15:47 | 45.53279 | -74.15978 | 39633 ft | 402 kts | 262° |
| 2026-05-05 15:47 | 45.52769 | -74.23919 | 39620 ft | 402 kts | 262° |
| 2026-05-05 15:48 | 45.52261 | -74.31799 | 39623 ft | 402 kts | 262° |
| 2026-05-05 15:48 | 45.51743 | -74.39692 | 39658 ft | 402 kts | 262° |
| 2026-05-05 15:49 | 45.51084 | -74.47603 | 39653 ft | 401 kts | 258° |
| 2026-05-05 15:49 | 45.50039 | -74.55389 | 39634 ft | 400 kts | 257° |
| 2026-05-05 15:50 | 45.48970 | -74.63091 | 39640 ft | 400 kts | 257° |
| 2026-05-05 15:50 | 45.47889 | -74.70848 | 39633 ft | 399 kts | 257° |
| 2026-05-05 15:51 | 45.46802 | -74.78577 | 39662 ft | 399 kts | 256° |
| 2026-05-05 15:51 | 45.45708 | -74.86306 | 39622 ft | 398 kts | 257° |
| 2026-05-05 15:52 | 45.44613 | -74.94023 | 39626 ft | 398 kts | 256° |
| 2026-05-05 15:52 | 45.43514 | -75.01711 | 39624 ft | 398 kts | 257° |
| 2026-05-05 15:53 | 45.42412 | -75.09355 | 39615 ft | 397 kts | 256° |
| 2026-05-05 15:53 | 45.41294 | -75.17034 | 39633 ft | 396 kts | 257° |
| 2026-05-05 15:54 | 45.40179 | -75.24673 | 39629 ft | 397 kts | 257° |
| 2026-05-05 15:54 | 45.39058 | -75.32302 | 39612 ft | 397 kts | 257° |
| 2026-05-05 15:55 | 45.37928 | -75.39979 | 39630 ft | 396 kts | 257° |
| 2026-05-05 15:55 | 45.36795 | -75.47617 | 39616 ft | 396 kts | 257° |
| 2026-05-05 15:56 | 45.35661 | -75.55238 | 39632 ft | 395 kts | 257° |
| 2026-05-05 15:56 | 45.34521 | -75.62856 | 39619 ft | 395 kts | 257° |
| 2026-05-05 15:57 | 45.33375 | -75.70480 | 39638 ft | 394 kts | 256° |
| 2026-05-05 15:57 | 45.32231 | -75.78058 | 39626 ft | 395 kts | 256° |
| 2026-05-05 15:58 | 45.31078 | -75.85638 | 39629 ft | 394 kts | 257° |
| 2026-05-05 15:58 | 45.29922 | -75.93230 | 39621 ft | 394 kts | 256° |
| 2026-05-05 15:59 | 45.28757 | -76.00838 | 39633 ft | 395 kts | 256° |
| 2026-05-05 15:59 | 45.27589 | -76.08415 | 39641 ft | 394 kts | 257° |
| 2026-05-05 16:00 | 45.26420 | -76.15978 | 39638 ft | 393 kts | 256° |
| 2026-05-05 16:00 | 45.25010 | -76.23441 | 39644 ft | 392 kts | 252° |
| 2026-05-05 16:01 | 45.23140 | -76.30632 | 39657 ft | 391 kts | 248° |
| 2026-05-05 16:01 | 45.21028 | -76.37723 | 39666 ft | 391 kts | 248° |
| 2026-05-05 16:02 | 45.18924 | -76.44793 | 39669 ft | 390 kts | 248° |
| 2026-05-05 16:02 | 45.16815 | -76.51828 | 39642 ft | 390 kts | 248° |
| 2026-05-05 16:03 | 45.14694 | -76.58877 | 39656 ft | 390 kts | 248° |
| 2026-05-05 16:03 | 45.12577 | -76.65892 | 39701 ft | 390 kts | 247° |
| 2026-05-05 16:04 | 45.10442 | -76.72940 | 39690 ft | 389 kts | 247° |
| 2026-05-05 16:04 | 45.09383 | -76.76428 | 39418 ft | 389 kts | 248° |
| 2026-05-05 16:04 | 45.08326 | -76.79916 | 39154 ft | 386 kts | 247° |
| 2026-05-05 16:04 | 45.07268 | -76.83389 | 38822 ft | 383 kts | 248° |
| 2026-05-05 16:05 | 45.06230 | -76.86797 | 38452 ft | 380 kts | 247° |
| 2026-05-05 16:05 | 45.05186 | -76.90211 | 38074 ft | 378 kts | 248° |
| 2026-05-05 16:05 | 45.04147 | -76.93619 | 37668 ft | 376 kts | 248° |
| 2026-05-05 16:05 | 45.03115 | -76.96987 | 37267 ft | 374 kts | 248° |
| 2026-05-05 16:06 | 45.02089 | -77.00340 | 36843 ft | 371 kts | 247° |
| 2026-05-05 16:06 | 45.01066 | -77.03676 | 36484 ft | 369 kts | 248° |
| 2026-05-05 16:06 | 45.00056 | -77.06964 | 36108 ft | 367 kts | 248° |
| 2026-05-05 16:06 | 44.99049 | -77.10240 | 35706 ft | 366 kts | 248° |
| 2026-05-05 16:07 | 44.98038 | -77.13524 | 35251 ft | 366 kts | 248° |
| 2026-05-05 16:07 | 44.97027 | -77.16804 | 34781 ft | 366 kts | 248° |
| 2026-05-05 16:07 | 44.96023 | -77.20055 | 34267 ft | 365 kts | 248° |
| 2026-05-05 16:07 | 44.95004 | -77.23352 | 33778 ft | 363 kts | 248° |
| 2026-05-05 16:08 | 44.94003 | -77.26588 | 33296 ft | 362 kts | 248° |
| 2026-05-05 16:08 | 44.93002 | -77.29821 | 32806 ft | 360 kts | 248° |
| 2026-05-05 16:08 | 44.92004 | -77.33041 | 32335 ft | 358 kts | 248° |
| 2026-05-05 16:08 | 44.91019 | -77.36214 | 32032 ft | 358 kts | 248° |
| 2026-05-05 16:09 | 44.90015 | -77.39440 | 31743 ft | 356 kts | 248° |
| 2026-05-05 16:09 | 44.89030 | -77.42610 | 31448 ft | 355 kts | 248° |
| 2026-05-05 16:09 | 44.88033 | -77.45806 | 31154 ft | 353 kts | 248° |
| 2026-05-05 16:09 | 44.87055 | -77.48944 | 30859 ft | 351 kts | 248° |
| 2026-05-05 16:10 | 44.86074 | -77.52077 | 30564 ft | 349 kts | 248° |
| 2026-05-05 16:10 | 44.85107 | -77.55170 | 30270 ft | 347 kts | 248° |
| 2026-05-05 16:10 | 44.84136 | -77.58270 | 29980 ft | 346 kts | 247° |
| 2026-05-05 16:10 | 44.83170 | -77.61353 | 29683 ft | 344 kts | 248° |
| 2026-05-05 16:11 | 44.82212 | -77.64400 | 29396 ft | 342 kts | 248° |
| 2026-05-05 16:11 | 44.79344 | -77.73511 | 28520 ft | 337 kts | 247° |
| 2026-05-05 16:12 | 44.78393 | -77.76525 | 28231 ft | 335 kts | 247° |
| 2026-05-05 16:12 | 44.76496 | -77.82433 | 27626 ft | 332 kts | 245° |
| 2026-05-05 16:13 | 44.73172 | -77.90861 | 26626 ft | 327 kts | 242° |
| 2026-05-05 16:13 | 44.72050 | -77.93599 | 26304 ft | 325 kts | 242° |
| 2026-05-05 16:13 | 44.70921 | -77.96346 | 25974 ft | 323 kts | 241° |
| 2026-05-05 16:14 | 44.68688 | -78.01753 | 25335 ft | 319 kts | 241° |
| 2026-05-05 16:14 | 44.66486 | -78.07072 | 24692 ft | 315 kts | 241° |
| 2026-05-05 16:15 | 44.64297 | -78.12346 | 24056 ft | 312 kts | 241° |
| 2026-05-05 16:15 | 44.62123 | -78.17581 | 23412 ft | 308 kts | 240° |
| 2026-05-05 16:16 | 44.59984 | -78.22714 | 22792 ft | 304 kts | 240° |
| 2026-05-05 16:16 | 44.57866 | -78.27782 | 22165 ft | 301 kts | 240° |
| 2026-05-05 16:17 | 44.55770 | -78.32789 | 21557 ft | 297 kts | 240° |
| 2026-05-05 16:17 | 44.54723 | -78.35286 | 21250 ft | 295 kts | 240° |
| 2026-05-05 16:18 | 44.52658 | -78.40212 | 20628 ft | 292 kts | 240° |
| 2026-05-05 16:18 | 44.51628 | -78.42655 | 20268 ft | 291 kts | 240° |
| 2026-05-05 16:18 | 44.49598 | -78.47481 | 19553 ft | 288 kts | 240° |
| 2026-05-05 16:19 | 44.48592 | -78.49870 | 19185 ft | 287 kts | 240° |
| 2026-05-05 16:19 | 44.47573 | -78.52286 | 18814 ft | 286 kts | 240° |
| 2026-05-05 16:19 | 44.45585 | -78.57003 | 18142 ft | 282 kts | 240° |
| 2026-05-05 16:20 | 44.43592 | -78.61709 | 17466 ft | 279 kts | 240° |
| 2026-05-05 16:20 | 44.41634 | -78.66322 | 16809 ft | 276 kts | 239° |
| 2026-05-05 16:21 | 44.39717 | -78.70847 | 16170 ft | 273 kts | 239° |
| 2026-05-05 16:22 | 44.36839 | -78.77612 | 15203 ft | 268 kts | 239° |
| 2026-05-05 16:22 | 44.34948 | -78.82053 | 14542 ft | 266 kts | 239° |
| 2026-05-05 16:23 | 44.33065 | -78.86468 | 13911 ft | 263 kts | 239° |
| 2026-05-05 16:23 | 44.32120 | -78.88680 | 13599 ft | 262 kts | 239° |
| 2026-05-05 16:23 | 44.30277 | -78.92992 | 12990 ft | 259 kts | 239° |
| 2026-05-05 16:24 | 44.29352 | -78.95146 | 12682 ft | 257 kts | 239° |
| 2026-05-05 16:24 | 44.28438 | -78.97276 | 12382 ft | 256 kts | 239° |
| 2026-05-05 16:24 | 44.26632 | -79.01489 | 11766 ft | 253 kts | 239° |
| 2026-05-05 16:25 | 44.25707 | -79.03573 | 11475 ft | 251 kts | 237° |
| 2026-05-05 16:25 | 44.23589 | -79.07409 | 10860 ft | 250 kts | 231° |
| 2026-05-05 16:25 | 44.22417 | -79.09197 | 10543 ft | 249 kts | 230° |
| 2026-05-05 16:26 | 44.20089 | -79.12748 | 10091 ft | 240 kts | 230° |
| 2026-05-05 16:26 | 44.17932 | -79.16013 | 10044 ft | 219 kts | 231° |
| 2026-05-05 16:27 | 44.16911 | -79.17561 | 9873 ft | 219 kts | 230° |
| 2026-05-05 16:27 | 44.15881 | -79.19125 | 9574 ft | 219 kts | 230° |
| 2026-05-05 16:27 | 44.14862 | -79.20669 | 9306 ft | 218 kts | 230° |
| 2026-05-05 16:27 | 44.13843 | -79.22206 | 9043 ft | 217 kts | 230° |
| 2026-05-05 16:28 | 44.12806 | -79.23766 | 8763 ft | 217 kts | 230° |
| 2026-05-05 16:28 | 44.11797 | -79.25288 | 8499 ft | 217 kts | 230° |
| 2026-05-05 16:28 | 44.10767 | -79.26839 | 8237 ft | 216 kts | 230° |
| 2026-05-05 16:28 | 44.09756 | -79.28356 | 8023 ft | 214 kts | 231° |
| 2026-05-05 16:29 | 44.08770 | -79.29839 | 7976 ft | 204 kts | 230° |
| 2026-05-05 16:29 | 44.07819 | -79.31231 | 7961 ft | 194 kts | 224° |
| 2026-05-05 16:29 | 44.06595 | -79.32101 | 7975 ft | 206 kts | 200° |
| 2026-05-05 16:29 | 44.05085 | -79.32194 | 7999 ft | 226 kts | 187° |
| 2026-05-05 16:30 | 44.03494 | -79.32079 | 7850 ft | 229 kts | 187° |
| 2026-05-05 16:30 | 44.01886 | -79.31953 | 7538 ft | 232 kts | 186° |
| 2026-05-05 16:30 | 44.00285 | -79.31823 | 7229 ft | 235 kts | 186° |
| 2026-05-05 16:30 | 43.98644 | -79.31687 | 6927 ft | 237 kts | 185° |
| 2026-05-05 16:31 | 43.96988 | -79.31548 | 6623 ft | 239 kts | 185° |
| 2026-05-05 16:31 | 43.95348 | -79.31411 | 6300 ft | 236 kts | 184° |
| 2026-05-05 16:31 | 43.93714 | -79.31267 | 6019 ft | 230 kts | 184° |
| 2026-05-05 16:31 | 43.92135 | -79.31131 | 5749 ft | 225 kts | 184° |
| 2026-05-05 16:32 | 43.90604 | -79.30999 | 5496 ft | 220 kts | 184° |
| 2026-05-05 16:32 | 43.89062 | -79.30872 | 5250 ft | 221 kts | 185° |
| 2026-05-05 16:32 | 43.87578 | -79.31199 | 4969 ft | 211 kts | 211° |
| 2026-05-05 16:32 | 43.86381 | -79.32273 | 4737 ft | 205 kts | 226° |
| 2026-05-05 16:33 | 43.85368 | -79.33662 | 4529 ft | 203 kts | 232° |
| 2026-05-05 16:33 | 43.84425 | -79.35125 | 4322 ft | 202 kts | 233° |
| 2026-05-05 16:33 | 43.83490 | -79.36565 | 4133 ft | 200 kts | 232° |
| 2026-05-05 16:33 | 43.82548 | -79.37978 | 3966 ft | 197 kts | 232° |
| 2026-05-05 16:34 | 43.81620 | -79.39339 | 3807 ft | 193 kts | 232° |
| 2026-05-05 16:34 | 43.80712 | -79.40655 | 3656 ft | 187 kts | 232° |
| 2026-05-05 16:34 | 43.79829 | -79.41927 | 3495 ft | 180 kts | 232° |
| 2026-05-05 16:34 | 43.78974 | -79.43155 | 3343 ft | 171 kts | 232° |
| 2026-05-05 16:35 | 43.78177 | -79.44315 | 3176 ft | 164 kts | 233° |
| 2026-05-05 16:35 | 43.77416 | -79.45460 | 3031 ft | 158 kts | 233° |
| 2026-05-05 16:35 | 43.76668 | -79.46527 | 2893 ft | 148 kts | 233° |
| 2026-05-05 16:35 | 43.75997 | -79.47521 | 2718 ft | 139 kts | 234° |
| 2026-05-05 16:36 | 43.75348 | -79.48520 | 2398 ft | 141 kts | 234° |
| 2026-05-05 16:36 | 43.74705 | -79.49487 | 2194 ft | 135 kts | 234° |
| 2026-05-05 16:36 | 43.74055 | -79.50401 | 2015 ft | 130 kts | 232° |
| 2026-05-05 16:36 | 43.73391 | -79.51270 | 1873 ft | 132 kts | 230° |
| 2026-05-05 16:37 | 43.72694 | -79.52115 | 1689 ft | 130 kts | 231° |
| 2026-05-05 16:37 | 43.72040 | -79.52981 | 1604 ft | 129 kts | 233° |
| 2026-05-05 16:37 | 43.71413 | -79.53871 | 1472 ft | 129 kts | 234° |
| 2026-05-05 16:37 | 43.70817 | -79.54800 | 1357 ft | 129 kts | 235° |
| 2026-05-05 16:38 | 43.70245 | -79.55745 | 1288 ft | 128 kts | 237° |
| 2026-05-05 16:38 | 43.69654 | -79.56689 | 1172 ft | 129 kts | 233° |
| 2026-05-05 16:38 | 43.69016 | -79.57597 | 992 ft | 130 kts | 231° |
| 2026-05-05 16:38 | 43.68381 | -79.58484 | 813 ft | 129 kts | 231° |
| 2026-05-05 16:39 | 43.67749 | -79.59380 | 621 ft | 130 kts | 232° |
| 2026-05-05 16:39 | 43.67134 | -79.60295 | 540 ft | 118 kts | 231° |
| 2026-05-05 16:39 | 43.66676 | -79.60983 | 526 ft | 75 kts | 229° |
| 2026-05-05 16:39 | 43.66446 | -79.61341 | 526 ft | 23 kts | 244° |
| 2026-05-05 16:40 | 43.66397 | -79.61516 | 531 ft | 14 kts | 254° |
| 2026-05-05 16:40 | 43.66379 | -79.61645 | 534 ft | 13 kts | 275° |
| 2026-05-05 16:40 | 43.66419 | -79.61750 | 538 ft | 11 kts | 316° |
| 2026-05-05 16:40 | 43.66474 | -79.61822 | 541 ft | 10 kts | 316° |
| 2026-05-05 16:41 | 43.66526 | -79.61888 | 544 ft | 11 kts | 318° |
| 2026-05-05 16:41 | 43.66587 | -79.61968 | 548 ft | 11 kts | 315° |
| 2026-05-05 16:41 | 43.66651 | -79.62000 | 552 ft | 10 kts | 10° |
| 2026-05-05 16:41 | 43.66722 | -79.61948 | 552 ft | 13 kts | 41° |
| 2026-05-05 16:42 | 43.66804 | -79.61846 | 552 ft | 16 kts | 43° |
| 2026-05-05 16:42 | 43.66891 | -79.61736 | 551 ft | 17 kts | 43° |
| 2026-05-05 16:42 | 43.66987 | -79.61610 | 550 ft | 21 kts | 43° |
| 2026-05-05 16:42 | 43.67098 | -79.61472 | 547 ft | 22 kts | 41° |
| 2026-05-05 16:43 | 43.67197 | -79.61334 | 546 ft | 19 kts | 50° |
| 2026-05-05 16:43 | 43.67254 | -79.61268 | 545 ft | 8 kts | 4° |
| 2026-05-05 16:43 | 43.67309 | -79.61305 | 548 ft | 11 kts | 320° |
| 2026-05-05 16:43 | 43.67379 | -79.61397 | 552 ft | 16 kts | 315° |
| 2026-05-05 16:44 | 43.67459 | -79.61501 | 557 ft | 14 kts | 317° |
| 2026-05-05 16:44 | 43.67531 | -79.61596 | 559 ft | 14 kts | 317° |
| 2026-05-05 16:44 | 43.67594 | -79.61669 | 559 ft | 9 kts | 343° |
| 2026-05-05 16:44 | 43.67660 | -79.61639 | 559 ft | 11 kts | 41° |
| 2026-05-05 16:45 | 43.67705 | -79.61578 | 559 ft | 6 kts | 45° |
| 2026-05-05 16:45 | 43.67734 | -79.61538 | 559 ft | 6 kts | 46° |
| 2026-05-05 16:45 | 43.67771 | -79.61486 | 559 ft | 6 kts | 46° |
| 2026-05-05 16:45 | 43.67774 | -79.61482 | 559 ft | 0 kts | 46° |
| 2026-05-05 16:46 | 43.67775 | -79.61480 | 559 ft | 0 kts | 52° |
| 2026-05-05 16:46 | 43.67773 | -79.61465 | 559 ft | 3 kts | 116° |
| 2026-05-05 16:46 | 43.67755 | -79.61431 | 559 ft | 2 kts | 127° |
| 2026-05-05 16:46 | 43.67743 | -79.61404 | 559 ft | 3 kts | 121° |
| 2026-05-05 16:47 | 43.67737 | -79.61389 | 559 ft | 0 kts | 122° |